Wan Hai 501 — S6AS7 — position and weather

sailwx.info

Track history (hours):
 
Tides and Currents Weather Stations Pressure Air Temp Water Temp Dewpoint Dewpoint Depression Visibility Wind Speed Wind Dir Waves Ship Positions

Wan Hai 501

Last reported at 2016-Apr-26 17:23 UTC. Time now 2016-May-02 23:17 UTC.
Position N 01°52' E 102°27'.

Length 269 m; draft 11.3 m.

Type: Cargo ship. MMSI: 563382000.

Date/timePositionNaut miles runAvg speedWind from/ knotsBaromVisibWave heightAir tempDewpointWater temp
2016-Apr-26 17:23N 01°52' E 102°27'1315.1
2016-Apr-26 16:33N 01°46' E 102°38'1514.7
2016-Apr-26 15:33N 01°39' E 102°51'5714.3
2016-Apr-26 11:33N 01°14' E 103°42'5 4.3
2016-Apr-26 10:28N 01°17' E 103°46'0 0.0
2016-Apr-26 09:28N 01°17' E 103°46'0 0.0
2016-Apr-26 08:31N 01°17' E 103°46'0 0.0
2016-Apr-26 07:28N 01°17' E 103°46'0 0.0
2016-Apr-26 06:31N 01°17' E 103°46'0 0.0
2016-Apr-26 05:31N 01°17' E 103°46'0 0.0
2016-Apr-26 04:28N 01°17' E 103°46'0 0.0
2016-Apr-26 03:31N 01°17' E 103°46'0 0.0
2016-Apr-26 02:31N 01°17' E 103°46'0 0.0
2016-Apr-26 01:31N 01°17' E 103°46'0 0.0
2016-Apr-26 00:31N 01°17' E 103°46'0 0.1
2016-Apr-25 23:33N 01°17' E 103°46'2 2.0
2016-Apr-25 22:33N 01°15' E 103°47'8 7.9
2016-Apr-25 21:33N 01°14' E 103°55'6 5.9
2016-Apr-25 20:34N 01°16' E 104°00'  
2016-Apr-21 02:32N 22°02' E 114°21'1210.8
2016-Apr-21 01:24N 22°11' E 114°11'1011.5
2016-Apr-21 00:33N 22°19' E 114°06'1 1.3
2016-Apr-20 23:31N 22°20' E 114°08'0 0.0
2016-Apr-20 22:31N 22°20' E 114°08'0 0.1
2016-Apr-20 21:31N 22°20' E 114°08'0 0.1
2016-Apr-20 20:31N 22°20' E 114°08'0 0.0
2016-Apr-20 19:28N 22°20' E 114°08'0 0.0
2016-Apr-20 18:31N 22°20' E 114°08'0 0.0
2016-Apr-20 17:31N 22°20' E 114°08'0 0.0
2016-Apr-20 16:31N 22°20' E 114°08'2 2.2
2016-Apr-20 15:33N 22°19' E 114°06'11 9.8
2016-Apr-20 14:29N 22°10' E 114°13'7 8.1
2016-Apr-20 13:33N 22°09' E 114°21'161 9.2
2016-Apr-19 20:08N 22°57' E 117°06'8216.3
2016-Apr-19 15:05N 23°47' E 118°17'916.0
2016-Apr-19 14:31N 23°54' E 118°24'3215.5
2016-Apr-19 12:26N 24°15' E 118°51'2814.7
2016-Apr-19 10:33N 24°33' E 119°13'1414.4
2016-Apr-19 09:33N 24°43' E 119°25'31414.8
2016-Apr-18 12:18N 29°10' E 122°32'1314.3
2016-Apr-18 11:22N 29°23' E 122°30'1313.8
2016-Apr-18 10:27N 29°36' E 122°27'1112.2
2016-Apr-18 09:32N 29°44' E 122°19'1010.5
2016-Apr-18 08:33N 29°50' E 122°09'8 0.6
2016-Apr-17 20:28N 29°47' E 122°02'1010.4
2016-Apr-17 19:27N 29°50' E 122°13'9 9.5
2016-Apr-17 18:33N 29°45' E 122°21'1 0.5
2016-Apr-17 17:28N 29°45' E 122°22'0 0.1
2016-Apr-17 12:22N 29°45' E 122°22'0 0.2
2016-Apr-17 11:17N 29°45' E 122°22'3 4.0
2016-Apr-17 10:33N 29°44' E 122°25'  
Track history (hours):
 
Tides and Currents Weather Stations Pressure Air Temp Water Temp Dewpoint Dewpoint Depression Visibility Wind Speed Wind Dir Waves Ship Positions

Wan Hai 501

Last reported at 2016-Apr-26 17:23 UTC. Time now 2016-May-02 23:18 UTC.
Position N 01°52' E 102°27'.

Length 269 m; draft 11.3 m.

Type: Cargo ship. MMSI: 563382000.

Date/timePositionNaut miles runAvg speedWind from/ knotsBaromVisibWave heightAir tempDewpointWater temp
2016-Apr-26 17:23N 01°52' E 102°27'1315.1
2016-Apr-26 16:33N 01°46' E 102°38'1514.7
2016-Apr-26 15:33N 01°39' E 102°51'5714.3
2016-Apr-26 11:33N 01°14' E 103°42'5 4.3
2016-Apr-26 10:28N 01°17' E 103°46'0 0.0
2016-Apr-26 09:28N 01°17' E 103°46'0 0.0
2016-Apr-26 08:31N 01°17' E 103°46'0 0.0
2016-Apr-26 07:28N 01°17' E 103°46'0 0.0
2016-Apr-26 06:31N 01°17' E 103°46'0 0.0
2016-Apr-26 05:31N 01°17' E 103°46'0 0.0
2016-Apr-26 04:28N 01°17' E 103°46'0 0.0
2016-Apr-26 03:31N 01°17' E 103°46'0 0.0
2016-Apr-26 02:31N 01°17' E 103°46'0 0.0
2016-Apr-26 01:31N 01°17' E 103°46'0 0.0
2016-Apr-26 00:31N 01°17' E 103°46'0 0.1
2016-Apr-25 23:33N 01°17' E 103°46'2 2.0
2016-Apr-25 22:33N 01°15' E 103°47'8 7.9
2016-Apr-25 21:33N 01°14' E 103°55'6 5.9
2016-Apr-25 20:34N 01°16' E 104°00'  
2016-Apr-21 02:32N 22°02' E 114°21'1210.8
2016-Apr-21 01:24N 22°11' E 114°11'1011.5
2016-Apr-21 00:33N 22°19' E 114°06'1 1.3
2016-Apr-20 23:31N 22°20' E 114°08'0 0.0
2016-Apr-20 22:31N 22°20' E 114°08'0 0.1
2016-Apr-20 21:31N 22°20' E 114°08'0 0.1
2016-Apr-20 20:31N 22°20' E 114°08'0 0.0
2016-Apr-20 19:28N 22°20' E 114°08'0 0.0
2016-Apr-20 18:31N 22°20' E 114°08'0 0.0
2016-Apr-20 17:31N 22°20' E 114°08'0 0.0
2016-Apr-20 16:31N 22°20' E 114°08'2 2.2
2016-Apr-20 15:33N 22°19' E 114°06'11 9.8
2016-Apr-20 14:29N 22°10' E 114°13'7 8.1
2016-Apr-20 13:33N 22°09' E 114°21'161 9.2
2016-Apr-19 20:08N 22°57' E 117°06'8216.3
2016-Apr-19 15:05N 23°47' E 118°17'916.0
2016-Apr-19 14:31N 23°54' E 118°24'3215.5
2016-Apr-19 12:26N 24°15' E 118°51'2814.7
2016-Apr-19 10:33N 24°33' E 119°13'1414.4
2016-Apr-19 09:33N 24°43' E 119°25'31414.8
2016-Apr-18 12:18N 29°10' E 122°32'1314.3
2016-Apr-18 11:22N 29°23' E 122°30'1313.8
2016-Apr-18 10:27N 29°36' E 122°27'1112.2
2016-Apr-18 09:32N 29°44' E 122°19'1010.5
2016-Apr-18 08:33N 29°50' E 122°09'8 0.6
2016-Apr-17 20:28N 29°47' E 122°02'1010.4
2016-Apr-17 19:27N 29°50' E 122°13'9 9.5
2016-Apr-17 18:33N 29°45' E 122°21'1 0.5
2016-Apr-17 17:28N 29°45' E 122°22'0 0.1
2016-Apr-17 12:22N 29°45' E 122°22'0 0.2
2016-Apr-17 11:17N 29°45' E 122°22'3 4.0
2016-Apr-17 10:33N 29°44' E 122°25'  

Dump ship's entire track history